Toronto, Ontario

1:13 AM EST on March 02, 2015 (GMT -0500)
Toronto-City Centre | Change Station
CLOSE
Current Station
Airport
Location: Toronto,
Elevation: 253 ft
Nearby Weather Stations

Elev 253 ft 43.63 °N, 79.40 °W | Updated 4 minutes ago

Overcast
Overcast
21 °F
Feels Like 11 °F
N
9
Wind Variable Wind from West
Gusts 17 mph

Today is forecast to be nearly the same temperature as yesterday.

Today
High -- | Low -- °F
--% Chance of Precip.
Yesterday
High -- | Low -- °F
Precip. -- in
6:52 AM 6:07 PM
Waxing Gibbous, 89% visible
Pressure 30.17 in
Visibility 9.0 miles
Clouds Overcast 5000 ft
Windchill 11 °F
Dew Point 14 °F
Humidity 74%
Rainfall 0.00 in
Snow Depth Not available.
UV 0 out of 12
Pollen Not available.
Air Quality Not available.
Flu Activity Not available.
SPECI CYTZ 020609Z AUTO 27008G15KT 9SM OVC050 M06/M10 A3015 RMK SLP214

More Conditions Fewer Conditions

Pressure 30.17 in
Visibility 9.0 miles
Clouds Overcast 5000 ft
Windchill 11 °F
Dew Point 14 °F
Humidity 74%
Rainfall 0.00 in
Snow Depth Not available.
UV 0 out of 12
Pollen Not available.
Air Quality Not available.
Flu Activity Not available.
SPECI CYTZ 020609Z AUTO 27008G15KT 9SM OVC050 M06/M10 A3015 RMK SLP214

More Conditions Fewer Conditions

10-Day Weather Forecast

Almanac

Astronomy

Mar. 02, 2015 Rise Set
Actual Time
Civil Twilight
Nautical Twilight
Astronomical Twilight
Moon
Length of Visible Light
Length of Day
Tomorrow will be .
, % of the Moon is Illuminated

Today's Extremes

Country Highs Country Lows

Community

WunderPhotos

Upload Photos

1,801,738 photos uploaded!

WunderBlogs® & News

Nearby

Air Quality

  Air Quality AQ Index Pollutant
Not available.

Snow Depth

Station Depth Elevation

Earthquake Activity

City Distance Mag. Time & Date
Minimum magnitude displayed is 2.5.

Coastal Water Temperatures

Place Temperature

Nearby Weather Stations